sensor_id;sensor_type;location;lat;lon;timestamp;P1;durP1;ratioP1;P2;durP2;ratioP2
79178;SDS011;68608;49.904;16.436;2023-11-21T00:04:28;7.03;;;4.57;;
79178;SDS011;68608;49.904;16.436;2023-11-21T00:06:54;6.93;;;4.40;;
79178;SDS011;68608;49.904;16.436;2023-11-21T00:09:20;5.93;;;4.40;;
79178;SDS011;68608;49.904;16.436;2023-11-21T00:11:46;6.13;;;5.17;;
79178;SDS011;68608;49.904;16.436;2023-11-21T00:14:12;5.07;;;4.57;;
79178;SDS011;68608;49.904;16.436;2023-11-21T00:16:40;8.40;;;5.43;;
79178;SDS011;68608;49.904;16.436;2023-11-21T00:19:06;6.00;;;5.13;;
79178;SDS011;68608;49.904;16.436;2023-11-21T00:21:32;5.30;;;4.80;;
79178;SDS011;68608;49.904;16.436;2023-11-21T00:24:01;5.88;;;5.28;;
79178;SDS011;68608;49.904;16.436;2023-11-21T00:26:27;5.70;;;4.87;;
79178;SDS011;68608;49.904;16.436;2023-11-21T00:28:53;7.73;;;5.33;;
79178;SDS011;68608;49.904;16.436;2023-11-21T00:31:19;5.33;;;4.73;;
79178;SDS011;68608;49.904;16.436;2023-11-21T00:33:45;5.10;;;4.60;;
79178;SDS011;68608;49.904;16.436;2023-11-21T00:36:11;9.15;;;6.50;;
79178;SDS011;68608;49.904;16.436;2023-11-21T00:38:37;5.87;;;4.27;;
79178;SDS011;68608;49.904;16.436;2023-11-21T00:41:05;4.50;;;4.03;;
79178;SDS011;68608;49.904;16.436;2023-11-21T00:43:31;5.00;;;4.50;;
79178;SDS011;68608;49.904;16.436;2023-11-21T00:45:58;7.47;;;4.87;;
79178;SDS011;68608;49.904;16.436;2023-11-21T00:48:24;6.20;;;5.33;;
79178;SDS011;68608;49.904;16.436;2023-11-21T00:50:51;8.10;;;6.03;;
79178;SDS011;68608;49.904;16.436;2023-11-21T00:53:17;7.37;;;4.80;;
79178;SDS011;68608;49.904;16.436;2023-11-21T00:55:43;6.73;;;4.77;;
79178;SDS011;68608;49.904;16.436;2023-11-21T00:58:11;5.50;;;4.90;;
79178;SDS011;68608;49.904;16.436;2023-11-21T01:00:37;6.53;;;5.70;;
79178;SDS011;68608;49.904;16.436;2023-11-21T01:03:04;5.27;;;4.47;;
79178;SDS011;68608;49.904;16.436;2023-11-21T01:05:32;9.07;;;4.90;;
79178;SDS011;68608;49.904;16.436;2023-11-21T01:07:59;5.37;;;4.60;;
79178;SDS011;68608;49.904;16.436;2023-11-21T01:10:25;5.33;;;4.17;;
79178;SDS011;68608;49.904;16.436;2023-11-21T01:12:51;8.97;;;4.67;;
79178;SDS011;68608;49.904;16.436;2023-11-21T01:15:17;6.57;;;4.80;;
79178;SDS011;68608;49.904;16.436;2023-11-21T01:17:43;5.30;;;4.80;;
79178;SDS011;68608;49.904;16.436;2023-11-21T01:20:09;5.70;;;3.95;;
79178;SDS011;68608;49.904;16.436;2023-11-21T01:22:37;6.30;;;5.10;;
79178;SDS011;68608;49.904;16.436;2023-11-21T01:25:04;7.07;;;4.70;;
79178;SDS011;68608;49.904;16.436;2023-11-21T01:27:33;5.40;;;4.40;;
79178;SDS011;68608;49.904;16.436;2023-11-21T01:30:00;5.85;;;5.03;;
79178;SDS011;68608;49.904;16.436;2023-11-21T01:32:32;7.27;;;5.60;;
79178;SDS011;68608;49.904;16.436;2023-11-21T01:35:09;7.05;;;6.35;;
79178;SDS011;68608;49.904;16.436;2023-11-21T01:37:40;9.73;;;7.18;;
79178;SDS011;68608;49.904;16.436;2023-11-21T01:40:06;7.87;;;6.97;;
79178;SDS011;68608;49.904;16.436;2023-11-21T01:42:35;8.20;;;5.72;;
79178;SDS011;68608;49.904;16.436;2023-11-21T01:45:02;8.52;;;4.35;;
79178;SDS011;68608;49.904;16.436;2023-11-21T01:47:30;7.63;;;4.03;;
79178;SDS011;68608;49.904;16.436;2023-11-21T01:49:59;4.90;;;4.50;;
79178;SDS011;68608;49.904;16.436;2023-11-21T01:52:30;7.97;;;5.57;;
79178;SDS011;68608;49.904;16.436;2023-11-21T01:54:57;5.63;;;4.70;;
79178;SDS011;68608;49.904;16.436;2023-11-21T01:57:24;7.32;;;5.28;;
79178;SDS011;68608;49.904;16.436;2023-11-21T01:59:58;6.60;;;5.38;;
79178;SDS011;68608;49.904;16.436;2023-11-21T02:02:27;6.10;;;5.32;;
79178;SDS011;68608;49.904;16.436;2023-11-21T02:04:55;7.80;;;5.13;;
79178;SDS011;68608;49.904;16.436;2023-11-21T02:07:22;7.90;;;5.10;;
79178;SDS011;68608;49.904;16.436;2023-11-21T02:09:48;7.05;;;5.97;;
79178;SDS011;68608;49.904;16.436;2023-11-21T02:12:17;10.52;;;5.88;;
79178;SDS011;68608;49.904;16.436;2023-11-21T02:14:43;6.22;;;5.53;;
79178;SDS011;68608;49.904;16.436;2023-11-21T02:17:12;7.60;;;6.00;;
79178;SDS011;68608;49.904;16.436;2023-11-21T02:19:40;7.70;;;5.78;;
79178;SDS011;68608;49.904;16.436;2023-11-21T04:10:20;9.43;;;8.45;;
79178;SDS011;68608;49.904;16.436;2023-11-21T04:12:54;11.27;;;6.63;;
79178;SDS011;68608;49.904;16.436;2023-11-21T04:15:23;9.20;;;7.50;;
79178;SDS011;68608;49.904;16.436;2023-11-21T04:17:49;11.52;;;7.32;;
79178;SDS011;68608;49.904;16.436;2023-11-21T04:20:15;11.65;;;9.45;;
79178;SDS011;68608;49.904;16.436;2023-11-21T04:22:43;13.18;;;9.68;;
79178;SDS011;68608;49.904;16.436;2023-11-21T04:25:09;10.82;;;8.10;;
79178;SDS011;68608;49.904;16.436;2023-11-21T04:27:58;8.73;;;7.93;;
79178;SDS011;68608;49.904;16.436;2023-11-21T04:30:25;7.32;;;6.63;;
79178;SDS011;68608;49.904;16.436;2023-11-21T04:32:51;5.93;;;5.37;;
79178;SDS011;68608;49.904;16.436;2023-11-21T04:35:17;8.65;;;6.72;;
79178;SDS011;68608;49.904;16.436;2023-11-21T04:37:43;8.43;;;7.63;;
79178;SDS011;68608;49.904;16.436;2023-11-21T04:43:09;7.78;;;6.38;;
79178;SDS011;68608;49.904;16.436;2023-11-21T04:45:44;10.75;;;7.82;;
79178;SDS011;68608;49.904;16.436;2023-11-21T04:48:10;13.45;;;9.63;;
79178;SDS011;68608;49.904;16.436;2023-11-21T04:50:36;11.05;;;8.95;;
79178;SDS011;68608;49.904;16.436;2023-11-21T04:53:02;11.65;;;9.85;;
79178;SDS011;68608;49.904;16.436;2023-11-21T04:55:28;11.63;;;10.53;;
79178;SDS011;68608;49.904;16.436;2023-11-21T04:57:54;12.13;;;10.95;;
79178;SDS011;68608;49.904;16.436;2023-11-21T05:00:20;13.43;;;11.73;;
79178;SDS011;68608;49.904;16.436;2023-11-21T05:02:47;11.10;;;9.80;;
79178;SDS011;68608;49.904;16.436;2023-11-21T05:05:13;10.68;;;9.68;;
79178;SDS011;68608;49.904;16.436;2023-11-21T05:07:39;11.45;;;10.25;;
79178;SDS011;68608;49.904;16.436;2023-11-21T05:10:08;12.52;;;11.13;;
79178;SDS011;68608;49.904;16.436;2023-11-21T05:12:37;10.55;;;9.55;;
79178;SDS011;68608;49.904;16.436;2023-11-21T05:15:03;12.30;;;11.10;;
79178;SDS011;68608;49.904;16.436;2023-11-21T05:17:37;13.88;;;10.88;;
79178;SDS011;68608;49.904;16.436;2023-11-21T05:20:09;11.85;;;10.70;;
79178;SDS011;68608;49.904;16.436;2023-11-21T05:22:39;12.27;;;10.52;;
79178;SDS011;68608;49.904;16.436;2023-11-21T05:25:07;13.07;;;11.70;;
79178;SDS011;68608;49.904;16.436;2023-11-21T05:27:33;14.70;;;11.50;;
79178;SDS011;68608;49.904;16.436;2023-11-21T05:30:03;13.57;;;12.18;;
79178;SDS011;68608;49.904;16.436;2023-11-21T05:32:31;12.63;;;10.88;;
79178;SDS011;68608;49.904;16.436;2023-11-21T05:34:57;13.10;;;11.35;;
79178;SDS011;68608;49.904;16.436;2023-11-21T05:37:24;14.17;;;11.90;;
79178;SDS011;68608;49.904;16.436;2023-11-21T05:39:52;13.32;;;11.77;;
79178;SDS011;68608;49.904;16.436;2023-11-21T05:42:18;16.48;;;14.85;;
79178;SDS011;68608;49.904;16.436;2023-11-21T05:44:45;12.83;;;11.47;;
79178;SDS011;68608;49.904;16.436;2023-11-21T05:47:12;15.27;;;12.23;;
79178;SDS011;68608;49.904;16.436;2023-11-21T05:49:38;13.93;;;11.85;;
79178;SDS011;68608;49.904;16.436;2023-11-21T05:52:04;12.07;;;10.80;;
79178;SDS011;68608;49.904;16.436;2023-11-21T05:54:32;12.25;;;10.95;;
79178;SDS011;68608;49.904;16.436;2023-11-21T05:56:59;11.98;;;10.88;;
79178;SDS011;68608;49.904;16.436;2023-11-21T05:59:26;14.60;;;10.38;;
79178;SDS011;68608;49.904;16.436;2023-11-21T06:01:52;12.38;;;11.15;;
79178;SDS011;68608;49.904;16.436;2023-11-21T06:04:19;11.43;;;10.27;;
79178;SDS011;68608;49.904;16.436;2023-11-21T06:06:51;12.13;;;9.70;;
79178;SDS011;68608;49.904;16.436;2023-11-21T06:09:18;11.38;;;10.18;;
79178;SDS011;68608;49.904;16.436;2023-11-21T06:11:48;10.73;;;9.60;;
79178;SDS011;68608;49.904;16.436;2023-11-21T06:14:14;10.20;;;9.10;;
79178;SDS011;68608;49.904;16.436;2023-11-21T06:16:42;10.32;;;9.23;;
79178;SDS011;68608;49.904;16.436;2023-11-21T06:19:10;9.90;;;8.90;;
79178;SDS011;68608;49.904;16.436;2023-11-21T06:21:37;11.17;;;10.07;;
79178;SDS011;68608;49.904;16.436;2023-11-21T06:24:03;12.52;;;10.18;;
79178;SDS011;68608;49.904;16.436;2023-11-21T06:26:30;10.90;;;9.80;;
79178;SDS011;68608;49.904;16.436;2023-11-21T06:28:56;11.75;;;10.38;;
79178;SDS011;68608;49.904;16.436;2023-11-21T06:31:23;11.18;;;10.07;;
79178;SDS011;68608;49.904;16.436;2023-11-21T06:33:49;13.93;;;12.52;;
79178;SDS011;68608;49.904;16.436;2023-11-21T06:36:16;11.23;;;10.13;;
79178;SDS011;68608;49.904;16.436;2023-11-21T06:38:43;12.63;;;11.10;;
79178;SDS011;68608;49.904;16.436;2023-11-21T06:41:10;11.88;;;10.05;;
79178;SDS011;68608;49.904;16.436;2023-11-21T06:43:41;13.00;;;11.70;;
79178;SDS011;68608;49.904;16.436;2023-11-21T06:46:11;13.82;;;11.70;;
79178;SDS011;68608;49.904;16.436;2023-11-21T06:48:37;13.13;;;11.82;;
79178;SDS011;68608;49.904;16.436;2023-11-21T06:51:03;16.13;;;12.60;;
79178;SDS011;68608;49.904;16.436;2023-11-21T06:53:29;13.30;;;11.13;;
79178;SDS011;68608;49.904;16.436;2023-11-21T06:55:55;12.98;;;11.68;;
79178;SDS011;68608;49.904;16.436;2023-11-21T06:58:24;13.13;;;11.63;;
79178;SDS011;68608;49.904;16.436;2023-11-21T07:00:50;13.73;;;11.50;;
79178;SDS011;68608;49.904;16.436;2023-11-21T07:03:17;13.60;;;12.27;;
79178;SDS011;68608;49.904;16.436;2023-11-21T07:05:44;11.48;;;10.35;;
79178;SDS011;68608;49.904;16.436;2023-11-21T07:08:10;11.52;;;10.00;;
79178;SDS011;68608;49.904;16.436;2023-11-21T07:10:37;14.32;;;9.98;;
79178;SDS011;68608;49.904;16.436;2023-11-21T07:13:03;10.93;;;9.82;;
79178;SDS011;68608;49.904;16.436;2023-11-21T07:15:29;12.27;;;10.13;;
79178;SDS011;68608;49.904;16.436;2023-11-21T07:17:56;13.15;;;11.25;;
79178;SDS011;68608;49.904;16.436;2023-11-21T07:20:22;12.90;;;11.40;;
79178;SDS011;68608;49.904;16.436;2023-11-21T07:22:48;10.43;;;9.48;;
79178;SDS011;68608;49.904;16.436;2023-11-21T07:25:18;10.65;;;9.63;;
79178;SDS011;68608;49.904;16.436;2023-11-21T07:27:44;12.77;;;11.45;;
79178;SDS011;68608;49.904;16.436;2023-11-21T07:30:10;10.50;;;9.55;;
79178;SDS011;68608;49.904;16.436;2023-11-21T07:32:38;11.95;;;10.75;;
79178;SDS011;68608;49.904;16.436;2023-11-21T07:35:04;12.70;;;11.45;;
79178;SDS011;68608;49.904;16.436;2023-11-21T07:37:33;13.30;;;12.00;;
79178;SDS011;68608;49.904;16.436;2023-11-21T07:39:59;12.90;;;9.07;;
79178;SDS011;68608;49.904;16.436;2023-11-21T07:42:25;11.70;;;10.68;;
79178;SDS011;68608;49.904;16.436;2023-11-21T07:44:51;8.48;;;7.65;;
79178;SDS011;68608;49.904;16.436;2023-11-21T07:47:17;11.52;;;9.57;;
79178;SDS011;68608;49.904;16.436;2023-11-21T07:49:43;9.80;;;8.90;;
79178;SDS011;68608;49.904;16.436;2023-11-21T07:52:14;10.65;;;9.60;;
79178;SDS011;68608;49.904;16.436;2023-11-21T07:54:41;8.60;;;7.80;;
79178;SDS011;68608;49.904;16.436;2023-11-21T07:57:07;9.20;;;8.38;;
79178;SDS011;68608;49.904;16.436;2023-11-21T07:59:33;9.27;;;8.23;;
79178;SDS011;68608;49.904;16.436;2023-11-21T08:01:59;9.18;;;8.35;;
79178;SDS011;68608;49.904;16.436;2023-11-21T08:04:25;9.48;;;8.65;;
79178;SDS011;68608;49.904;16.436;2023-11-21T08:06:52;9.52;;;8.52;;
79178;SDS011;68608;49.904;16.436;2023-11-21T08:09:18;9.55;;;8.55;;
79178;SDS011;68608;49.904;16.436;2023-11-21T08:11:46;10.57;;;9.40;;
79178;SDS011;68608;49.904;16.436;2023-11-21T08:14:12;10.18;;;8.70;;
79178;SDS011;68608;49.904;16.436;2023-11-21T08:16:39;11.43;;;9.25;;
79178;SDS011;68608;49.904;16.436;2023-11-21T08:19:05;10.38;;;9.38;;
79178;SDS011;68608;49.904;16.436;2023-11-21T08:21:33;12.25;;;10.93;;
79178;SDS011;68608;49.904;16.436;2023-11-21T08:23:59;10.85;;;9.82;;
79178;SDS011;68608;49.904;16.436;2023-11-21T08:26:28;10.85;;;9.88;;
79178;SDS011;68608;49.904;16.436;2023-11-21T08:28:54;11.95;;;10.82;;
79178;SDS011;68608;49.904;16.436;2023-11-21T08:31:27;13.05;;;10.85;;
79178;SDS011;68608;49.904;16.436;2023-11-21T08:33:54;11.52;;;10.43;;
79178;SDS011;68608;49.904;16.436;2023-11-21T08:36:23;11.57;;;10.40;;
79178;SDS011;68608;49.904;16.436;2023-11-21T08:38:50;11.95;;;10.88;;
79178;SDS011;68608;49.904;16.436;2023-11-21T08:41:19;10.65;;;9.40;;
79178;SDS011;68608;49.904;16.436;2023-11-21T08:43:51;11.45;;;10.05;;
79178;SDS011;68608;49.904;16.436;2023-11-21T08:46:18;10.45;;;9.40;;
79178;SDS011;68608;49.904;16.436;2023-11-21T08:48:45;11.55;;;10.35;;
79178;SDS011;68608;49.904;16.436;2023-11-21T08:51:11;11.45;;;10.25;;
79178;SDS011;68608;49.904;16.436;2023-11-21T08:53:37;10.70;;;9.70;;
79178;SDS011;68608;49.904;16.436;2023-11-21T08:56:03;15.20;;;12.90;;
79178;SDS011;68608;49.904;16.436;2023-11-21T08:58:30;15.40;;;13.85;;
79178;SDS011;68608;49.904;16.436;2023-11-21T09:01:01;14.82;;;13.48;;
79178;SDS011;68608;49.904;16.436;2023-11-21T09:03:28;15.73;;;13.25;;
79178;SDS011;68608;49.904;16.436;2023-11-21T09:05:54;14.98;;;13.30;;
79178;SDS011;68608;49.904;16.436;2023-11-21T09:08:20;19.70;;;17.48;;
79178;SDS011;68608;49.904;16.436;2023-11-21T09:10:47;17.15;;;15.00;;
79178;SDS011;68608;49.904;16.436;2023-11-21T09:13:13;15.45;;;13.95;;
79178;SDS011;68608;49.904;16.436;2023-11-21T09:15:41;17.08;;;14.68;;
79178;SDS011;68608;49.904;16.436;2023-11-21T09:18:11;16.83;;;15.02;;
79178;SDS011;68608;49.904;16.436;2023-11-21T09:20:37;16.00;;;14.48;;
79178;SDS011;68608;49.904;16.436;2023-11-21T09:23:03;18.52;;;14.10;;
79178;SDS011;68608;49.904;16.436;2023-11-21T09:25:29;18.08;;;16.17;;
79178;SDS011;68608;49.904;16.436;2023-11-21T09:27:55;18.45;;;16.00;;
79178;SDS011;68608;49.904;16.436;2023-11-21T09:30:22;17.33;;;15.60;;
79178;SDS011;68608;49.904;16.436;2023-11-21T09:32:50;19.13;;;17.27;;
79178;SDS011;68608;49.904;16.436;2023-11-21T09:35:16;23.15;;;18.90;;
79178;SDS011;68608;49.904;16.436;2023-11-21T09:37:45;27.23;;;20.58;;
79178;SDS011;68608;49.904;16.436;2023-11-21T09:40:11;19.55;;;17.58;;
79178;SDS011;68608;49.904;16.436;2023-11-21T09:42:39;19.13;;;16.98;;
79178;SDS011;68608;49.904;16.436;2023-11-21T09:45:42;22.08;;;18.42;;
79178;SDS011;68608;49.904;16.436;2023-11-21T09:48:01;22.35;;;19.30;;
79178;SDS011;68608;49.904;16.436;2023-11-21T09:50:27;19.67;;;17.67;;
79178;SDS011;68608;49.904;16.436;2023-11-21T09:52:58;22.13;;;19.75;;
79178;SDS011;68608;49.904;16.436;2023-11-21T09:55:26;21.00;;;18.90;;
79178;SDS011;68608;49.904;16.436;2023-11-21T09:57:55;21.00;;;18.75;;
79178;SDS011;68608;49.904;16.436;2023-11-21T10:00:22;20.92;;;18.90;;
79178;SDS011;68608;49.904;16.436;2023-11-21T10:02:49;18.45;;;16.75;;
79178;SDS011;68608;49.904;16.436;2023-11-21T10:05:15;16.48;;;14.75;;
79178;SDS011;68608;49.904;16.436;2023-11-21T10:07:45;16.13;;;14.50;;
79178;SDS011;68608;49.904;16.436;2023-11-21T10:10:12;13.88;;;12.57;;
79178;SDS011;68608;49.904;16.436;2023-11-21T10:12:39;15.15;;;13.82;;
79178;SDS011;68608;49.904;16.436;2023-11-21T10:15:07;14.50;;;13.20;;
79178;SDS011;68608;49.904;16.436;2023-11-21T10:17:35;17.52;;;15.93;;
79178;SDS011;68608;49.904;16.436;2023-11-21T10:20:08;11.23;;;10.07;;
79178;SDS011;68608;49.904;16.436;2023-11-21T10:22:39;15.75;;;14.27;;
79178;SDS011;68608;49.904;16.436;2023-11-21T10:25:09;16.75;;;15.10;;
79178;SDS011;68608;49.904;16.436;2023-11-21T10:27:36;13.48;;;12.23;;
79178;SDS011;68608;49.904;16.436;2023-11-21T10:30:04;12.90;;;11.80;;
79178;SDS011;68608;49.904;16.436;2023-11-21T10:32:30;13.95;;;12.63;;
79178;SDS011;68608;49.904;16.436;2023-11-21T10:34:58;13.57;;;12.38;;
79178;SDS011;68608;49.904;16.436;2023-11-21T10:37:25;13.77;;;12.45;;
79178;SDS011;68608;49.904;16.436;2023-11-21T10:40:00;16.58;;;14.98;;
79178;SDS011;68608;49.904;16.436;2023-11-21T10:42:27;17.42;;;15.73;;
79178;SDS011;68608;49.904;16.436;2023-11-21T10:44:55;14.68;;;13.23;;
79178;SDS011;68608;49.904;16.436;2023-11-21T10:47:21;16.38;;;14.82;;
79178;SDS011;68608;49.904;16.436;2023-11-21T10:49:48;16.50;;;13.90;;
79178;SDS011;68608;49.904;16.436;2023-11-21T10:52:14;15.55;;;14.05;;
79178;SDS011;68608;49.904;16.436;2023-11-21T10:54:42;16.45;;;14.57;;
79178;SDS011;68608;49.904;16.436;2023-11-21T10:57:09;14.80;;;13.32;;
79178;SDS011;68608;49.904;16.436;2023-11-21T10:59:36;17.42;;;14.38;;
79178;SDS011;68608;49.904;16.436;2023-11-21T11:02:07;15.55;;;14.10;;
79178;SDS011;68608;49.904;16.436;2023-11-21T11:04:40;16.13;;;14.25;;
79178;SDS011;68608;49.904;16.436;2023-11-21T11:07:07;16.13;;;13.80;;
79178;SDS011;68608;49.904;16.436;2023-11-21T11:09:36;14.02;;;12.63;;
79178;SDS011;68608;49.904;16.436;2023-11-21T11:12:02;12.85;;;11.65;;
79178;SDS011;68608;49.904;16.436;2023-11-21T11:14:31;12.48;;;11.18;;
79178;SDS011;68608;49.904;16.436;2023-11-21T11:17:02;12.13;;;10.93;;
79178;SDS011;68608;49.904;16.436;2023-11-21T11:19:32;14.98;;;13.68;;
79178;SDS011;68608;49.904;16.436;2023-11-21T11:22:03;12.40;;;11.20;;
79178;SDS011;68608;49.904;16.436;2023-11-21T11:24:49;14.95;;;11.85;;
79178;SDS011;68608;49.904;16.436;2023-11-21T11:32:29;16.90;;;13.32;;
79178;SDS011;68608;49.904;16.436;2023-11-21T11:35:04;14.63;;;11.65;;
79178;SDS011;68608;49.904;16.436;2023-11-21T11:37:30;11.85;;;10.60;;
79178;SDS011;68608;49.904;16.436;2023-11-21T11:39:56;11.88;;;10.68;;
79178;SDS011;68608;49.904;16.436;2023-11-21T11:42:22;11.73;;;10.52;;
79178;SDS011;68608;49.904;16.436;2023-11-21T11:44:49;14.05;;;12.57;;
79178;SDS011;68608;49.904;16.436;2023-11-21T11:47:27;12.68;;;11.45;;
79178;SDS011;68608;49.904;16.436;2023-11-21T11:49:58;12.95;;;11.73;;
79178;SDS011;68608;49.904;16.436;2023-11-21T11:52:45;14.90;;;12.32;;
79178;SDS011;68608;49.904;16.436;2023-11-21T11:55:12;15.07;;;13.32;;
79178;SDS011;68608;49.904;16.436;2023-11-21T11:57:39;16.40;;;12.77;;
79178;SDS011;68608;49.904;16.436;2023-11-21T12:00:09;12.95;;;11.75;;
79178;SDS011;68608;49.904;16.436;2023-11-21T12:02:36;17.48;;;13.85;;
79178;SDS011;68608;49.904;16.436;2023-11-21T12:05:12;15.25;;;11.90;;
79178;SDS011;68608;49.904;16.436;2023-11-21T12:10:17;14.55;;;12.05;;
79178;SDS011;68608;49.904;16.436;2023-11-21T12:12:46;11.85;;;10.65;;
79178;SDS011;68608;49.904;16.436;2023-11-21T12:15:12;12.88;;;9.15;;
79178;SDS011;68608;49.904;16.436;2023-11-21T12:17:39;13.18;;;9.48;;
79178;SDS011;68608;49.904;16.436;2023-11-21T12:20:06;12.18;;;9.60;;
79178;SDS011;68608;49.904;16.436;2023-11-21T12:22:41;12.82;;;10.40;;
79178;SDS011;68608;49.904;16.436;2023-11-21T12:25:07;13.50;;;10.68;;
79178;SDS011;68608;49.904;16.436;2023-11-21T12:27:33;11.57;;;9.70;;
79178;SDS011;68608;49.904;16.436;2023-11-21T12:30:03;15.98;;;12.40;;
79178;SDS011;68608;49.904;16.436;2023-11-21T12:32:29;12.40;;;10.73;;
79178;SDS011;68608;49.904;16.436;2023-11-21T12:34:58;10.90;;;9.77;;
79178;SDS011;68608;49.904;16.436;2023-11-21T12:37:25;15.30;;;12.75;;
79178;SDS011;68608;49.904;16.436;2023-11-21T14:28:05;19.02;;;12.30;;
79178;SDS011;68608;49.904;16.436;2023-11-21T14:30:33;18.50;;;16.02;;
79178;SDS011;68608;49.904;16.436;2023-11-21T14:33:02;17.00;;;14.82;;
79178;SDS011;68608;49.904;16.436;2023-11-21T14:35:33;19.70;;;16.73;;
79178;SDS011;68608;49.904;16.436;2023-11-21T14:37:59;14.85;;;12.98;;
79178;SDS011;68608;49.904;16.436;2023-11-21T14:40:27;20.67;;;12.77;;
79178;SDS011;68608;49.904;16.436;2023-11-21T14:42:58;16.92;;;12.32;;
79178;SDS011;68608;49.904;16.436;2023-11-21T14:45:24;18.33;;;12.75;;
79178;SDS011;68608;49.904;16.436;2023-11-21T14:47:51;16.75;;;14.70;;
79178;SDS011;68608;49.904;16.436;2023-11-21T14:50:34;16.00;;;11.73;;
79178;SDS011;68608;49.904;16.436;2023-11-21T14:53:06;11.75;;;10.48;;
79178;SDS011;68608;49.904;16.436;2023-11-21T14:55:33;20.00;;;12.52;;
79178;SDS011;68608;49.904;16.436;2023-11-21T14:58:14;13.65;;;11.15;;
79178;SDS011;68608;49.904;16.436;2023-11-21T15:00:44;16.15;;;12.32;;
79178;SDS011;68608;49.904;16.436;2023-11-21T15:03:11;13.15;;;11.75;;
79178;SDS011;68608;49.904;16.436;2023-11-21T15:05:47;24.33;;;18.75;;
79178;SDS011;68608;49.904;16.436;2023-11-21T15:08:14;21.58;;;15.90;;
79178;SDS011;68608;49.904;16.436;2023-11-21T15:10:51;65.20;;;35.83;;
79178;SDS011;68608;49.904;16.436;2023-11-21T15:13:20;41.92;;;32.22;;
79178;SDS011;68608;49.904;16.436;2023-11-21T15:15:48;12.52;;;9.73;;
79178;SDS011;68608;49.904;16.436;2023-11-21T15:18:14;11.55;;;9.38;;
79178;SDS011;68608;49.904;16.436;2023-11-21T15:20:40;11.82;;;10.10;;
79178;SDS011;68608;49.904;16.436;2023-11-21T15:23:07;12.90;;;10.23;;
79178;SDS011;68608;49.904;16.436;2023-11-21T15:25:33;13.73;;;11.10;;
79178;SDS011;68608;49.904;16.436;2023-11-21T15:28:00;13.23;;;10.55;;
79178;SDS011;68608;49.904;16.436;2023-11-21T15:30:27;15.52;;;12.75;;
79178;SDS011;68608;49.904;16.436;2023-11-21T15:32:56;29.10;;;20.17;;
79178;SDS011;68608;49.904;16.436;2023-11-21T15:35:22;26.10;;;18.70;;
79178;SDS011;68608;49.904;16.436;2023-11-21T15:37:48;50.95;;;32.92;;
79178;SDS011;68608;49.904;16.436;2023-11-21T15:40:15;23.98;;;16.25;;
79178;SDS011;68608;49.904;16.436;2023-11-21T15:42:42;23.95;;;18.00;;
79178;SDS011;68608;49.904;16.436;2023-11-21T15:45:10;15.60;;;13.38;;
79178;SDS011;68608;49.904;16.436;2023-11-21T15:47:36;13.30;;;10.57;;
79178;SDS011;68608;49.904;16.436;2023-11-21T15:50:02;15.18;;;11.15;;
79178;SDS011;68608;49.904;16.436;2023-11-21T15:52:34;14.57;;;11.65;;
79178;SDS011;68608;49.904;16.436;2023-11-21T15:55:00;12.37;;;10.47;;
79178;SDS011;68608;49.904;16.436;2023-11-21T15:57:26;14.10;;;10.55;;
79178;SDS011;68608;49.904;16.436;2023-11-21T15:59:52;12.30;;;10.50;;
79178;SDS011;68608;49.904;16.436;2023-11-21T16:02:19;13.10;;;10.52;;
79178;SDS011;68608;49.904;16.436;2023-11-21T16:04:45;21.65;;;14.80;;
79178;SDS011;68608;49.904;16.436;2023-11-21T16:07:11;16.65;;;12.27;;
79178;SDS011;68608;49.904;16.436;2023-11-21T16:09:38;16.33;;;12.32;;
79178;SDS011;68608;49.904;16.436;2023-11-21T16:12:07;10.97;;;9.83;;
79178;SDS011;68608;49.904;16.436;2023-11-21T16:14:34;13.05;;;11.63;;
79178;SDS011;68608;49.904;16.436;2023-11-21T16:17:06;16.42;;;13.77;;
79178;SDS011;68608;49.904;16.436;2023-11-21T16:19:32;19.10;;;12.85;;
79178;SDS011;68608;49.904;16.436;2023-11-21T16:22:01;14.52;;;11.45;;
79178;SDS011;68608;49.904;16.436;2023-11-21T16:24:27;14.60;;;11.77;;
79178;SDS011;68608;49.904;16.436;2023-11-21T16:26:53;18.10;;;13.13;;
79178;SDS011;68608;49.904;16.436;2023-11-21T16:29:23;16.67;;;12.55;;
79178;SDS011;68608;49.904;16.436;2023-11-21T16:31:49;15.07;;;13.50;;
79178;SDS011;68608;49.904;16.436;2023-11-21T16:34:17;18.25;;;15.88;;
79178;SDS011;68608;49.904;16.436;2023-11-21T16:36:44;18.63;;;15.55;;
79178;SDS011;68608;49.904;16.436;2023-11-21T16:39:11;20.23;;;18.20;;
79178;SDS011;68608;49.904;16.436;2023-11-21T16:41:38;19.48;;;16.27;;
79178;SDS011;68608;49.904;16.436;2023-11-21T16:44:04;20.27;;;15.95;;
79178;SDS011;68608;49.904;16.436;2023-11-21T16:46:31;21.65;;;17.52;;
79178;SDS011;68608;49.904;16.436;2023-11-21T16:48:57;19.83;;;17.73;;
79178;SDS011;68608;49.904;16.436;2023-11-21T16:51:23;23.85;;;18.13;;
79178;SDS011;68608;49.904;16.436;2023-11-21T16:53:49;18.48;;;16.35;;
79178;SDS011;68608;49.904;16.436;2023-11-21T16:56:15;18.80;;;16.87;;
79178;SDS011;68608;49.904;16.436;2023-11-21T16:58:41;18.38;;;16.40;;
79178;SDS011;68608;49.904;16.436;2023-11-21T17:01:08;17.98;;;15.85;;
79178;SDS011;68608;49.904;16.436;2023-11-21T17:03:35;16.92;;;15.30;;
79178;SDS011;68608;49.904;16.436;2023-11-21T17:06:02;25.88;;;20.00;;
79178;SDS011;68608;49.904;16.436;2023-11-21T17:08:31;16.00;;;14.18;;
79178;SDS011;68608;49.904;16.436;2023-11-21T17:10:57;14.45;;;12.95;;
79178;SDS011;68608;49.904;16.436;2023-11-21T17:13:23;17.80;;;14.40;;
79178;SDS011;68608;49.904;16.436;2023-11-21T17:15:50;19.35;;;16.08;;
79178;SDS011;68608;49.904;16.436;2023-11-21T17:18:16;19.05;;;14.57;;
79178;SDS011;68608;49.904;16.436;2023-11-21T17:20:43;16.38;;;13.13;;
79178;SDS011;68608;49.904;16.436;2023-11-21T17:23:09;16.90;;;14.38;;
79178;SDS011;68608;49.904;16.436;2023-11-21T17:25:35;15.80;;;14.07;;
79178;SDS011;68608;49.904;16.436;2023-11-21T17:28:02;17.50;;;15.07;;
79178;SDS011;68608;49.904;16.436;2023-11-21T17:30:29;19.67;;;15.85;;
79178;SDS011;68608;49.904;16.436;2023-11-21T17:32:56;19.08;;;15.77;;
79178;SDS011;68608;49.904;16.436;2023-11-21T17:35:22;19.45;;;16.33;;
79178;SDS011;68608;49.904;16.436;2023-11-21T17:37:48;18.38;;;16.42;;
79178;SDS011;68608;49.904;16.436;2023-11-21T17:40:14;19.02;;;16.73;;
79178;SDS011;68608;49.904;16.436;2023-11-21T17:42:40;18.92;;;15.30;;
79178;SDS011;68608;49.904;16.436;2023-11-21T17:45:07;21.20;;;16.98;;
79178;SDS011;68608;49.904;16.436;2023-11-21T17:47:33;18.67;;;14.82;;
79178;SDS011;68608;49.904;16.436;2023-11-21T17:49:59;16.10;;;14.18;;
79178;SDS011;68608;49.904;16.436;2023-11-21T17:52:25;20.13;;;16.10;;
79178;SDS011;68608;49.904;16.436;2023-11-21T17:54:52;17.83;;;15.93;;
79178;SDS011;68608;49.904;16.436;2023-11-21T17:57:18;18.90;;;15.90;;
79178;SDS011;68608;49.904;16.436;2023-11-21T17:59:47;17.00;;;14.85;;
79178;SDS011;68608;49.904;16.436;2023-11-21T18:02:15;19.50;;;16.05;;
79178;SDS011;68608;49.904;16.436;2023-11-21T18:04:41;17.75;;;15.82;;
79178;SDS011;68608;49.904;16.436;2023-11-21T18:07:07;21.73;;;17.92;;
79178;SDS011;68608;49.904;16.436;2023-11-21T18:09:34;20.20;;;17.52;;